Time;durP1;ratioP1;P1;durP2;ratioP2;P2;SDS_P1;SDS_P2;PMS_P1;PMS_P2;Temp;Humidity;BMP_temperature;BMP_pressure;BME280_temperature;BME280_humidity;BME280_pressure;Samples;Min_cycle;Max_cycle;Signal;HPM_P1;HPM_P2
2024/04/09 00:02:04;;;;;;;8.90;4.90;;;;;;;15.95;100.00;100204.13;6686065;26;20032;-74
2024/04/09 00:05:08;;;;;;;8.55;3.90;;;;;;;15.96;100.00;100227.00;6686295;26;20381;-74
2024/04/09 00:08:13;;;;;;;6.63;3.97;;;;;;;15.93;100.00;100208.69;6686309;26;19993;-74
2024/04/09 00:11:20;;;;;;;9.32;3.90;;;;;;;15.99;100.00;100216.16;6710070;21;20012;-78
2024/04/09 00:14:24;;;;;;;7.13;3.58;;;;;;;16.03;100.00;100214.91;6730515;26;20314;-78
2024/04/09 00:17:34;;;;;;;10.52;4.43;;;;;;;16.03;100.00;100209.59;6729272;26;20056;-78
2024/04/09 00:20:40;;;;;;;6.57;3.67;;;;;;;16.11;100.00;100193.88;6730067;26;20300;-79
2024/04/09 00:23:40;;;;;;;10.13;3.38;;;;;;;16.18;100.00;100171.19;6730603;26;20010;-78
2024/04/09 00:26:44;;;;;;;14.27;3.40;;;;;;;16.21;100.00;100175.38;6730242;26;19992;-78
2024/04/09 00:29:44;;;;;;;10.63;2.88;;;;;;;16.25;100.00;100137.03;6729873;26;19996;-78
2024/04/09 00:32:48;;;;;;;9.00;3.08;;;;;;;16.26;100.00;100125.47;6715034;26;20013;-78
2024/04/09 00:35:51;;;;;;;7.90;3.60;;;;;;;16.25;100.00;100142.31;6729746;26;19995;-78
2024/04/09 00:38:56;;;;;;;6.35;3.13;;;;;;;16.26;100.00;100138.72;6729818;26;20022;-79
2024/04/09 00:41:59;;;;;;;6.70;3.00;;;;;;;16.23;100.00;100115.13;6729350;26;20065;-79
2024/04/09 00:45:00;;;;;;;9.68;3.00;;;;;;;16.22;100.00;100124.91;6729668;26;20375;-78
2024/04/09 00:48:04;;;;;;;6.10;2.60;;;;;;;16.19;100.00;100126.97;6729497;26;20064;-78
2024/04/09 00:51:09;;;;;;;8.68;2.95;;;;;;;16.15;100.00;100113.13;6729501;26;20002;-78
2024/04/09 00:54:12;;;;;;;9.98;3.42;;;;;;;16.03;100.00;100123.94;6729603;26;20011;-78
2024/04/09 00:57:14;;;;;;;13.70;3.22;;;;;;;16.09;100.00;100144.66;6729521;26;20550;-78
2024/04/09 01:00:17;;;;;;;12.95;3.65;;;;;;;16.10;100.00;100138.38;6714384;26;20069;-78
2024/04/09 01:03:18;;;;;;;8.43;3.10;;;;;;;16.12;100.00;100150.50;6729065;26;20263;-77
2024/04/09 01:06:23;;;;;;;5.75;3.20;;;;;;;16.13;100.00;100138.94;6729576;26;19996;-78
2024/04/09 01:09:26;;;;;;;7.82;3.88;;;;;;;16.17;100.00;100139.53;6731288;26;19996;-78
2024/04/09 01:12:27;;;;;;;13.32;3.05;;;;;;;16.15;100.00;100152.88;6730268;26;19992;-78
2024/04/09 01:15:30;;;;;;;7.75;3.20;;;;;;;16.13;100.00;100144.25;6728949;26;20273;-78
2024/04/09 01:18:30;;;;;;;9.20;3.13;;;;;;;16.12;100.00;100139.88;6729035;26;20003;-78
2024/04/09 01:21:37;;;;;;;8.82;3.00;;;;;;;16.14;100.00;100130.00;6728823;26;20244;-79
2024/04/09 01:24:42;;;;;;;15.35;2.72;;;;;;;16.13;100.00;100123.03;6728986;26;20356;-78
2024/04/09 01:27:43;;;;;;;6.07;2.65;;;;;;;16.13;100.00;100156.66;6728788;26;20264;-78
2024/04/09 01:30:46;;;;;;;7.35;2.25;;;;;;;16.11;100.00;100140.03;6731859;26;20043;-78
2024/04/09 01:33:47;;;;;;;13.30;3.30;;;;;;;16.07;100.00;100144.75;6733370;26;20253;-78
2024/04/09 01:36:51;;;;;;;9.00;3.03;;;;;;;16.07;100.00;100151.88;6733096;26;20002;-78
2024/04/09 01:39:54;;;;;;;9.55;2.60;;;;;;;16.01;100.00;100155.88;6733152;26;20005;-78
2024/04/09 01:42:57;;;;;;;5.97;2.75;;;;;;;15.95;100.00;100165.22;6733100;26;19999;-79
2024/04/09 01:46:00;;;;;;;7.90;2.45;;;;;;;15.93;100.00;100161.84;6733729;26;20002;-78
2024/04/09 01:49:00;;;;;;;5.20;2.45;;;;;;;15.93;100.00;100168.94;6735069;26;19995;-77
2024/04/09 01:52:04;;;;;;;5.45;2.33;;;;;;;15.90;100.00;100178.03;6734574;26;20290;-77
2024/04/09 01:55:09;;;;;;;10.82;2.53;;;;;;;15.97;100.00;100176.50;6734731;26;20007;-78
2024/04/09 01:58:11;;;;;;;8.73;2.70;;;;;;;15.98;100.00;100172.88;6734297;26;19992;-78
2024/04/09 02:01:15;;;;;;;5.75;2.30;;;;;;;15.99;100.00;100171.09;6732796;26;20065;-78
2024/04/09 02:04:15;;;;;;;7.05;2.78;;;;;;;15.93;100.00;100161.00;6733129;26;20321;-78
2024/04/09 02:07:18;;;;;;;8.02;2.38;;;;;;;15.92;100.00;100157.50;6732636;26;20007;-78
2024/04/09 02:10:21;;;;;;;7.32;2.50;;;;;;;15.92;100.00;100131.00;6732451;26;20006;-79
2024/04/09 02:13:25;;;;;;;13.82;2.85;;;;;;;15.92;100.00;100123.06;6731220;26;19999;-78
2024/04/09 02:16:28;;;;;;;7.53;2.55;;;;;;;15.93;100.00;100127.38;6690303;26;20061;-78
2024/04/09 02:19:28;;;;;;;10.27;3.05;;;;;;;15.92;100.00;100120.41;6688207;26;20002;-78
2024/04/09 02:22:31;;;;;;;6.97;3.00;;;;;;;15.86;100.00;100113.00;6687911;26;20373;-78
2024/04/09 02:25:37;;;;;;;8.50;2.70;;;;;;;15.86;100.00;100117.47;6687867;26;19999;-77
2024/04/09 02:28:41;;;;;;;8.75;2.92;;;;;;;15.88;100.00;100112.84;6690303;26;20065;-78
2024/04/09 02:31:43;;;;;;;9.15;3.03;;;;;;;15.85;100.00;100111.31;6731618;26;20027;-79
2024/04/09 02:34:46;;;;;;;7.13;3.10;;;;;;;15.85;100.00;100102.50;6718438;26;20270;-78
2024/04/09 02:37:47;;;;;;;8.18;3.00;;;;;;;15.81;100.00;100111.72;6688177;26;20103;-78
2024/04/09 02:40:53;;;;;;;8.25;3.03;;;;;;;15.89;100.00;100112.72;6686784;26;20004;-78
2024/04/09 02:43:56;;;;;;;8.93;3.10;;;;;;;15.93;100.00;100123.91;6706856;26;20014;-78
2024/04/09 02:46:59;;;;;;;14.57;3.97;;;;;;;15.94;100.00;100136.16;6731944;26;20007;-77
2024/04/09 02:50:01;;;;;;;5.95;3.03;;;;;;;15.96;100.00;100143.03;6731779;26;19996;-78
2024/04/09 02:53:04;;;;;;;5.55;3.63;;;;;;;15.98;100.00;100146.38;6731490;26;20010;-78
2024/04/09 02:56:09;;;;;;;7.57;3.35;;;;;;;15.98;100.00;100127.00;6729675;26;20003;-78
2024/04/09 02:59:12;;;;;;;10.10;3.20;;;;;;;16.00;100.00;100138.31;6724763;26;19992;-77
2024/04/09 03:02:12;;;;;;;10.20;3.80;;;;;;;16.05;100.00;100149.34;6699202;26;20007;-78
2024/04/09 03:05:15;;;;;;;7.57;3.45;;;;;;;16.10;100.00;100147.16;6716895;26;20007;-79
2024/04/09 03:08:16;;;;;;;8.40;3.67;;;;;;;16.07;100.00;100115.59;6731636;26;20098;-78
2024/04/09 03:11:22;;;;;;;6.88;3.00;;;;;;;16.06;100.00;100102.47;6726970;26;20011;-78
2024/04/09 03:14:23;;;;;;;6.88;3.05;;;;;;;15.97;100.00;100093.50;6720784;26;20052;-78
2024/04/09 03:17:26;;;;;;;11.82;3.03;;;;;;;15.98;100.00;100076.63;6697494;26;20000;-78
2024/04/09 03:20:27;;;;;;;14.63;4.30;;;;;;;15.96;100.00;100076.78;6706229;26;20000;-78
2024/04/09 03:23:30;;;;;;;10.90;3.75;;;;;;;15.93;100.00;100065.59;6699308;26;20006;-78
2024/04/09 03:26:33;;;;;;;8.38;3.15;;;;;;;15.93;100.00;100060.31;6731341;26;20064;-78
2024/04/09 03:29:36;;;;;;;10.35;3.25;;;;;;;15.97;100.00;100069.66;6731204;26;20010;-78
2024/04/09 03:32:37;;;;;;;7.57;2.78;;;;;;;15.87;100.00;100064.31;6716076;26;19992;-78
2024/04/09 03:35:40;;;;;;;10.55;3.35;;;;;;;16.02;100.00;100038.28;6686786;26;20011;-78
2024/04/09 03:38:43;;;;;;;14.75;2.80;;;;;;;16.09;100.00;100017.41;6687397;26;20057;-78
2024/04/09 03:41:49;;;;;;;11.77;3.80;;;;;;;16.17;100.00;100018.41;6703624;26;20388;-78
2024/04/09 03:44:52;;;;;;;8.57;2.83;;;;;;;16.28;100.00;100021.91;6730442;26;20068;-78
2024/04/09 03:47:52;;;;;;;9.68;2.55;;;;;;;16.34;100.00;100024.00;6730621;26;19998;-78
2024/04/09 03:50:55;;;;;;;10.23;2.35;;;;;;;16.39;100.00;100021.78;6730735;26;20299;-78
2024/04/09 03:53:56;;;;;;;6.10;2.70;;;;;;;16.42;100.00;100040.91;6729258;26;20002;-78
2024/04/09 03:57:03;;;;;;;12.95;3.22;;;;;;;16.42;100.00;100019.72;6724803;26;20008;-78
2024/04/09 04:00:11;;;;;;;7.43;2.50;;;;;;;16.48;100.00;100026.28;6714532;26;20012;-78
2024/04/09 04:03:12;;;;;;;10.30;3.07;;;;;;;16.48;100.00;100027.09;6720563;26;20072;-77
2024/04/09 04:06:15;;;;;;;5.50;2.30;;;;;;;16.45;100.00;100029.22;6730373;26;20003;-78
2024/04/09 04:09:16;;;;;;;8.57;1.98;;;;;;;16.41;100.00;100030.47;6730553;26;19995;-78
2024/04/09 04:12:21;;;;;;;7.32;2.00;;;;;;;16.37;100.00;100021.94;6730240;26;20064;-78
2024/04/09 04:15:24;;;;;;;6.72;2.35;;;;;;;16.32;100.00;100010.91;6714163;26;20007;-77
2024/04/09 04:18:25;;;;;;;6.13;2.83;;;;;;;16.27;100.00;100014.94;6730234;26;19988;-78
2024/04/09 04:21:28;;;;;;;10.20;2.70;;;;;;;16.26;100.00;100014.09;6689295;26;20000;-78
2024/04/09 04:24:29;;;;;;;7.07;2.53;;;;;;;16.22;100.00;100007.41;6714171;26;20000;-78
2024/04/09 04:27:34;;;;;;;8.60;2.85;;;;;;;16.16;100.00;100002.63;6729989;26;20261;-78
2024/04/09 04:30:37;;;;;;;6.20;2.88;;;;;;;16.15;100.00;100006.25;6720062;26;20053;-78
2024/04/09 04:33:39;;;;;;;9.77;2.90;;;;;;;16.21;100.00;100017.16;6685606;26;19996;-78
2024/04/09 04:36:42;;;;;;;8.15;2.97;;;;;;;16.21;100.00;100019.81;6686257;26;20000;-78
2024/04/09 04:39:45;;;;;;;8.73;2.63;;;;;;;16.19;100.00;100032.34;6685941;26;19993;-79
2024/04/09 04:42:48;;;;;;;19.75;3.88;;;;;;;16.20;100.00;100033.19;6685335;26;20002;-79
2024/04/09 04:45:51;;;;;;;10.65;2.63;;;;;;;16.18;100.00;100025.38;6710249;26;19999;-78
2024/04/09 04:48:52;;;;;;;13.50;2.75;;;;;;;16.23;100.00;100030.28;6731636;26;20366;-77
2024/04/09 04:51:55;;;;;;;10.48;3.40;;;;;;;16.24;100.00;100042.56;6732096;26;19995;-79
2024/04/09 04:54:56;;;;;;;8.95;2.75;;;;;;;16.19;100.00;100060.69;6723821;26;20011;-77
2024/04/09 04:58:02;;;;;;;14.93;3.42;;;;;;;16.26;100.00;100080.41;6728926;26;20068;-78
2024/04/09 05:01:03;;;;;;;9.30;2.83;;;;;;;16.29;100.00;100092.53;6729527;26;19992;-79
2024/04/09 05:04:06;;;;;;;12.32;3.47;;;;;;;16.31;100.00;100107.34;6730552;26;20718;-78
2024/04/09 05:07:06;;;;;;;22.30;3.65;;;;;;;16.33;100.00;100112.50;6733800;26;19999;-78
2024/04/09 05:10:12;;;;;;;12.07;2.85;;;;;;;16.33;100.00;100123.09;6733798;26;20045;-78
2024/04/09 05:13:15;;;;;;;14.80;2.88;;;;;;;16.39;100.00;100130.50;6733073;26;19996;-79
2024/04/09 05:16:18;;;;;;;7.63;2.80;;;;;;;16.45;100.00;100141.44;6732915;26;20014;-79
2024/04/09 05:19:22;;;;;;;16.38;3.28;;;;;;;16.50;100.00;100159.59;6724172;26;20003;-76
2024/04/09 05:22:24;;;;;;;13.27;3.50;;;;;;;16.49;100.00;100171.19;6728876;26;20019;-78
2024/04/09 05:25:30;;;;;;;13.48;3.10;;;;;;;16.39;100.00;100181.75;6731743;26;20014;-79
2024/04/09 05:28:33;;;;;;;12.70;3.25;;;;;;;16.39;100.00;100200.31;6710298;26;20376;-80
2024/04/09 05:31:36;;;;;;;9.13;3.47;;;;;;;16.42;100.00;100217.78;6719036;26;20011;-79
2024/04/09 05:34:36;;;;;;;16.42;3.22;;;;;;;16.42;100.00;100221.28;6713479;26;20078;-79
2024/04/09 05:37:40;;;;;;;11.55;3.20;;;;;;;16.40;100.00;100209.13;6727708;26;20008;-78
2024/04/09 05:40:43;;;;;;;7.10;3.42;;;;;;;16.37;100.00;100212.03;6731899;26;20326;-77
2024/04/09 05:43:46;;;;;;;13.63;3.58;;;;;;;16.34;100.00;100194.56;6715337;26;19999;-78
2024/04/09 05:46:49;;;;;;;10.45;2.90;;;;;;;16.30;100.00;100198.44;6716589;26;20015;-85
2024/04/09 05:49:49;;;;;;;9.90;3.45;;;;;;;16.37;100.00;100193.47;6711875;26;20034;-76
2024/04/09 05:52:53;;;;;;;10.07;3.58;;;;;;;16.51;100.00;100186.97;6723442;26;20007;-77
2024/04/09 05:55:53;;;;;;;13.45;3.45;;;;;;;16.53;100.00;100177.06;6732233;26;20057;-77
2024/04/09 05:58:59;;;;;;;11.90;4.03;;;;;;;16.53;100.00;100183.19;6717611;26;20011;-78
2024/04/09 06:01:59;;;;;;;5.03;2.50;;;;;;;16.48;100.00;100194.19;6729247;26;20057;-76
2024/04/09 06:05:02;;;;;;;8.13;3.10;;;;;;;16.55;100.00;100213.09;6706010;26;20229;-78
2024/04/09 06:08:03;;;;;;;9.88;2.45;;;;;;;16.55;100.00;100236.13;6716469;26;20000;-77
2024/04/09 06:11:07;;;;;;;8.38;1.88;;;;;;;16.58;100.00;100262.38;6715443;26;20004;-77
2024/04/09 06:14:10;;;;;;;14.77;1.98;;;;;;;16.81;100.00;100263.94;6705062;21;20005;-81
2024/04/09 06:17:14;;;;;;;11.40;2.10;;;;;;;17.03;100.00;100267.34;6687427;26;20000;-80
2024/04/09 06:20:15;;;;;;;9.95;3.08;;;;;;;17.09;100.00;100270.31;6684916;26;20003;-80
2024/04/09 06:23:18;;;;;;;4.35;2.17;;;;;;;17.01;100.00;100258.69;6663412;26;20370;-79
2024/04/09 06:26:20;;;;;;;7.93;2.17;;;;;;;16.95;100.00;100271.53;6668480;26;20368;-80
2024/04/09 06:29:26;;;;;;;3.60;1.60;;;;;;;16.88;100.00;100285.47;6676253;26;20368;-80
2024/04/09 06:32:30;;;;;;;4.88;2.03;;;;;;;16.95;100.00;100276.00;6667379;26;20074;-80
2024/04/09 06:35:30;;;;;;;7.75;1.60;;;;;;;17.10;100.00;100285.25;6673813;26;19997;-80
2024/04/09 06:38:33;;;;;;;8.20;2.22;;;;;;;17.07;100.00;100284.69;6679261;26;20011;-80
2024/04/09 06:41:33;;;;;;;8.43;2.10;;;;;;;16.98;100.00;100271.25;6675811;26;19992;-79
2024/04/09 06:44:39;;;;;;;3.22;1.52;;;;;;;16.98;100.00;100267.75;6665395;26;20004;-77
2024/04/09 06:47:40;;;;;;;8.45;2.05;;;;;;;16.97;100.00;100274.88;6674266;26;20061;-78
2024/04/09 06:50:43;;;;;;;9.55;2.35;;;;;;;16.91;100.00;100280.72;6676227;26;20016;-78
2024/04/09 06:53:44;;;;;;;4.75;1.50;;;;;;;16.83;100.00;100285.84;6671495;26;20331;-77
2024/04/09 06:56:47;;;;;;;13.18;2.00;;;;;;;16.72;100.00;100278.84;6687416;26;20061;-78
2024/04/09 06:59:50;;;;;;;7.00;2.35;;;;;;;16.63;100.00;100289.38;6687763;26;20084;-78
2024/04/09 07:02:53;;;;;;;5.00;1.95;;;;;;;16.58;100.00;100313.66;6659825;26;19998;-78
2024/04/09 07:05:56;;;;;;;11.20;2.00;;;;;;;16.64;100.00;100297.19;6644015;26;20370;-77
2024/04/09 07:09:00;;;;;;;17.92;2.28;;;;;;;16.74;100.00;100302.56;6644072;26;19993;-77
2024/04/09 07:12:03;;;;;;;11.15;2.50;;;;;;;16.95;100.00;100315.81;6643656;26;20036;-78
2024/04/09 07:15:06;;;;;;;5.95;2.28;;;;;;;17.03;100.00;100315.97;6675199;26;20054;-78
2024/04/09 07:18:10;;;;;;;8.90;2.35;;;;;;;17.22;100.00;100313.41;6669089;26;20036;-77
2024/04/09 07:21:10;;;;;;;13.18;2.40;;;;;;;17.29;100.00;100319.00;6685381;26;20004;-76
2024/04/09 07:24:13;;;;;;;4.88;1.80;;;;;;;17.37;100.00;100319.16;6685657;26;20019;-77
2024/04/09 07:27:14;;;;;;;5.25;2.00;;;;;;;17.21;100.00;100334.75;6674903;26;20000;-77
2024/04/09 07:30:20;;;;;;;5.43;2.05;;;;;;;17.23;100.00;100340.78;6672077;26;20069;-77
2024/04/09 07:33:24;;;;;;;10.95;1.70;;;;;;;17.13;100.00;100329.31;6678212;26;20255;-78
2024/04/09 07:36:24;;;;;;;5.65;1.55;;;;;;;17.06;100.00;100326.31;6686872;26;20003;-76
2024/04/09 07:39:28;;;;;;;4.57;2.63;;;;;;;17.21;100.00;100353.34;6686988;26;20267;-76
2024/04/09 07:42:28;;;;;;;9.50;2.20;;;;;;;17.23;100.00;100357.56;6671861;26;20000;-76
2024/04/09 07:45:34;;;;;;;4.22;1.67;;;;;;;17.25;100.00;100376.00;6686580;26;20007;-76
2024/04/09 07:48:34;;;;;;;10.07;1.88;;;;;;;17.15;100.00;100383.09;6686730;26;20388;-76
2024/04/09 07:51:37;;;;;;;6.15;1.70;;;;;;;17.04;100.00;100388.50;6686437;26;20062;-76
2024/04/09 07:54:38;;;;;;;2.92;1.48;;;;;;;17.11;100.00;100368.41;6671200;26;20382;-78
2024/04/09 07:57:42;;;;;;;4.18;1.33;;;;;;;17.32;100.00;100371.03;6680653;26;20019;-76
2024/04/09 08:00:49;;;;;;;5.60;1.58;;;;;;;17.45;100.00;100395.53;6681290;26;20067;-77
2024/04/09 08:03:49;;;;;;;4.68;1.63;;;;;;;17.54;100.00;100393.88;6643337;26;20004;-77
2024/04/09 08:06:52;;;;;;;7.13;1.90;;;;;;;17.56;100.00;100384.78;6643290;26;20254;-78
2024/04/09 08:09:53;;;;;;;9.18;2.13;;;;;;;17.59;100.00;100363.28;6684182;26;20501;-80
2024/04/09 08:12:57;;;;;;;5.97;1.35;;;;;;;17.64;100.00;100370.84;6643160;26;20016;-75
2024/04/09 08:16:03;;;;;;;3.72;1.25;;;;;;;17.76;100.00;100367.13;6642789;26;20004;-78
2024/04/09 08:19:04;;;;;;;8.07;1.52;;;;;;;17.73;100.00;100364.69;6642671;26;19997;-78
2024/04/09 08:22:07;;;;;;;4.47;1.30;;;;;;;17.62;100.00;100370.13;6641682;26;20038;-77
2024/04/09 08:25:08;;;;;;;2.47;1.30;;;;;;;17.54;100.00;100368.16;6642266;26;20001;-75
2024/04/09 08:28:11;;;;;;;6.13;1.85;;;;;;;17.56;100.00;100373.31;6642529;26;20009;-78
2024/04/09 08:31:17;;;;;;;3.35;1.63;;;;;;;17.50;100.00;100390.66;6664110;26;20425;-78
2024/04/09 08:34:17;;;;;;;3.20;1.40;;;;;;;17.53;100.00;100403.66;6681436;26;20036;-76
2024/04/09 08:37:20;;;;;;;5.00;1.00;;;;;;;17.43;100.00;100418.72;6671044;26;20021;-76
2024/04/09 08:40:21;;;;;;;3.58;1.13;;;;;;;17.43;100.00;100419.56;6675830;26;20000;-76
2024/04/09 08:43:26;;;;;;;4.00;1.60;;;;;;;17.41;100.00;100434.81;6685227;26;20061;-77
2024/04/09 08:46:32;;;;;;;6.68;1.25;;;;;;;17.42;100.00;100444.44;6685832;26;19996;-77
2024/04/09 08:49:35;;;;;;;2.72;1.10;;;;;;;17.39;100.00;100430.59;6685663;26;20000;-79
2024/04/09 08:52:37;;;;;;;4.47;1.50;;;;;;;17.29;100.00;100435.88;6678559;26;20070;-76
2024/04/09 08:55:41;;;;;;;3.08;1.20;;;;;;;17.45;100.00;100446.00;6641889;26;19995;-77
2024/04/09 08:58:42;;;;;;;2.40;0.90;;;;;;;17.44;100.00;100460.25;6650646;26;20009;-78
2024/04/09 09:01:49;;;;;;;2.58;1.15;;;;;;;17.49;100.00;100474.84;6641721;26;20013;-79
2024/04/09 09:04:49;;;;;;;5.32;1.00;;;;;;;17.45;100.00;100491.19;6656351;26;20070;-78
2024/04/09 09:08:02;;;;;;;2.50;1.10;;;;;;;17.36;100.00;100492.81;6642138;26;19993;-77
2024/04/09 09:11:05;;;;;;;3.25;1.27;;;;;;;17.49;100.00;100466.03;6641740;26;19993;-77
2024/04/09 09:14:06;;;;;;;4.47;1.48;;;;;;;17.53;100.00;100491.34;6642067;26;20062;-79
2024/04/09 09:17:11;;;;;;;2.97;1.20;;;;;;;17.46;100.00;100506.13;6642039;26;19993;-77
2024/04/09 09:20:16;;;;;;;6.82;1.30;;;;;;;17.41;100.00;100519.81;6667170;26;20001;-77
2024/04/09 09:23:20;;;;;;;2.20;1.15;;;;;;;17.47;100.00;100498.03;6674288;26;20058;-77
2024/04/09 09:26:26;;;;;;;4.22;1.10;;;;;;;17.46;100.00;100491.03;6685153;26;20003;-80
2024/04/09 09:29:26;;;;;;;3.30;1.65;;;;;;;17.47;100.00;100487.41;6685283;26;20011;-79
2024/04/09 09:32:32;;;;;;;3.40;1.30;;;;;;;17.56;100.00;100483.09;6684765;26;20028;-80
2024/04/09 09:35:36;;;;;;;2.70;1.60;;;;;;;17.74;100.00;100481.53;6684772;26;20012;-79
2024/04/09 09:38:40;;;;;;;6.78;1.02;;;;;;;17.77;100.00;100480.44;6684804;26;20369;-79
2024/04/09 09:41:42;;;;;;;5.25;1.10;;;;;;;17.79;100.00;100478.47;6682792;26;20012;-78
2024/04/09 09:44:45;;;;;;;2.33;1.00;;;;;;;17.87;100.00;100486.63;6684287;26;20015;-79
2024/04/09 09:47:53;;;;;;;2.05;0.70;;;;;;;17.87;100.00;100485.78;6684253;26;20000;-78
2024/04/09 09:50:56;;;;;;;2.42;1.05;;;;;;;17.98;100.00;100499.78;6685250;26;19996;-79
2024/04/09 09:53:57;;;;;;;3.22;1.23;;;;;;;18.03;100.00;100504.69;6662612;26;20013;-79
2024/04/09 09:57:04;;;;;;;2.15;0.68;;;;;;;18.17;100.00;100507.00;6673091;26;20008;-79
2024/04/09 10:00:09;;;;;;;4.15;1.25;;;;;;;18.07;100.00;100500.78;6688585;26;20050;-78
2024/04/09 10:03:15;;;;;;;2.78;1.15;;;;;;;17.87;100.00;100483.97;6688505;26;20012;-78
2024/04/09 10:06:16;;;;;;;2.00;0.80;;;;;;;18.06;100.00;100483.16;6688664;26;19988;-79
2024/04/09 10:09:19;;;;;;;3.00;1.00;;;;;;;18.12;100.00;100506.56;6683546;26;20020;-79
2024/04/09 10:12:20;;;;;;;1.25;0.80;;;;;;;17.98;100.00;100522.88;6672583;26;20268;-79
2024/04/09 10:15:28;;;;;;;3.55;1.10;;;;;;;17.87;100.00;100546.94;6673960;26;20074;-79
2024/04/09 10:18:37;;;;;;;1.35;0.80;;;;;;;17.84;100.00;100565.78;6688713;26;20032;-79
2024/04/09 10:21:41;;;;;;;2.08;0.90;;;;;;;17.56;100.00;100565.47;6688678;26;20367;-82
2024/04/09 10:24:42;;;;;;;1.45;0.98;;;;;;;17.23;100.00;100539.97;6678305;26;20012;-81
2024/04/09 10:27:45;;;;;;;4.55;1.10;;;;;;;17.30;100.00;100557.06;6683898;26;19996;-80
2024/04/09 10:30:46;;;;;;;1.60;0.68;;;;;;;17.17;100.00;100569.72;6681676;26;20261;-82
2024/04/09 10:33:59;;;;;;;3.65;1.35;;;;;;;17.11;100.00;100554.28;6676879;26;20000;-80
2024/04/09 10:37:01;;;;;;;2.15;0.82;;;;;;;17.09;100.00;100566.84;6688355;26;19992;-81
2024/04/09 10:40:05;;;;;;;6.28;1.40;;;;;;;17.01;100.00;100564.84;6688399;26;20002;-80
2024/04/09 10:43:07;;;;;;;1.65;0.80;;;;;;;16.98;100.00;100559.75;6687836;26;20301;-83
2024/04/09 10:46:11;;;;;;;5.38;1.05;;;;;;;16.89;100.00;100571.16;6688808;26;20575;-80
2024/04/09 10:49:14;;;;;;;2.38;1.33;;;;;;;16.83;100.00;100596.38;6687967;26;20061;-77
2024/04/09 10:52:17;;;;;;;4.88;2.15;;;;;;;16.65;100.00;100627.88;6686237;26;20000;-79
2024/04/09 10:55:18;;;;;;;1.63;0.95;;;;;;;16.47;100.00;100624.06;6644428;26;20062;-76
2024/04/09 10:58:21;;;;;;;4.78;0.90;;;;;;;16.31;100.00;100632.41;6648373;26;20001;-77
2024/04/09 11:01:22;;;;;;;1.52;0.90;;;;;;;16.16;100.00;100644.19;6672134;26;20001;-77
2024/04/09 11:04:28;;;;;;;0.98;0.70;;;;;;;16.01;100.00;100648.91;6687774;26;20268;-76
2024/04/09 11:07:32;;;;;;;1.35;0.80;;;;;;;15.89;100.00;100653.34;6687137;26;19996;-79
2024/04/09 11:10:35;;;;;;;0.90;0.80;;;;;;;15.91;100.00;100669.97;6687108;26;19996;-78
2024/04/09 11:13:36;;;;;;;1.05;0.60;;;;;;;15.86;100.00;100680.09;6664445;26;19997;-80
2024/04/09 11:16:47;;;;;;;0.68;0.50;;;;;;;15.83;100.00;100669.72;6658403;26;20067;-79
2024/04/09 11:19:51;;;;;;;1.38;0.60;;;;;;;15.84;100.00;100668.75;6643947;26;20041;-79
2024/04/09 11:22:54;;;;;;;1.60;0.63;;;;;;;15.90;100.00;100680.72;6643885;26;20005;-78
2024/04/09 11:25:54;;;;;;;0.40;0.30;;;;;;;15.87;100.00;100686.22;6644147;26;20041;-78
2024/04/09 11:28:57;;;;;;;6.50;1.67;;;;;;;15.80;100.00;100692.94;6677053;26;20319;-80
2024/04/09 11:32:00;;;;;;;0.35;0.35;;;;;;;15.59;100.00;100700.69;6686834;26;20401;-77
2024/04/09 11:35:17;;;;;;;1.23;0.40;;;;;;;15.60;100.00;100720.91;6687094;26;19996;-76
2024/04/09 11:38:19;;;;;;;2.17;0.60;;;;;;;15.50;95.58;100709.34;6686733;26;20401;-76
2024/04/09 11:41:22;;;;;;;0.60;0.50;;;;;;;15.45;96.54;100720.28;6685561;26;20003;-76
2024/04/09 11:44:27;;;;;;;2.25;0.45;;;;;;;15.42;95.84;100725.78;6686324;26;20328;-76
2024/04/09 11:47:27;;;;;;;0.50;0.50;;;;;;;15.36;96.10;100723.59;6686794;26;20004;-75
2024/04/09 11:50:33;;;;;;;1.95;0.70;;;;;;;15.27;97.98;100730.41;6686169;26;20062;-77
2024/04/09 11:53:42;;;;;;;0.70;0.68;;;;;;;15.25;95.16;100727.00;6671854;26;20065;-75
2024/04/09 11:56:45;;;;;;;0.70;0.70;;;;;;;15.15;92.48;100750.66;6676486;26;20012;-76
2024/04/09 11:59:47;;;;;;;0.85;0.75;;;;;;;15.05;93.71;100748.81;6643173;26;20000;-79
2024/04/09 12:02:50;;;;;;;1.05;0.95;;;;;;;14.98;97.55;100753.69;6671771;26;20019;-78
2024/04/09 12:05:53;;;;;;;0.95;0.85;;;;;;;14.91;97.86;100769.16;6674572;26;20012;-77
2024/04/09 12:08:56;;;;;;;1.33;1.08;;;;;;;14.88;100.00;100757.94;6672575;26;20004;-77
2024/04/09 12:11:59;;;;;;;1.77;0.93;;;;;;;14.68;100.00;100768.16;6682131;26;20000;-77
2024/04/09 12:15:03;;;;;;;3.60;1.05;;;;;;;14.72;100.00;100779.34;6664958;26;20066;-78
2024/04/09 12:18:07;;;;;;;1.60;1.20;;;;;;;14.73;100.00;100773.13;6642808;26;20357;-79
2024/04/09 12:21:10;;;;;;;2.78;1.40;;;;;;;14.67;100.00;100784.09;6642518;26;20320;-78
2024/04/09 12:24:14;;;;;;;3.95;1.40;;;;;;;14.60;98.95;100786.34;6671711;26;20011;-77
2024/04/09 12:27:14;;;;;;;1.65;1.55;;;;;;;14.56;100.00;100803.38;6642647;26;20348;-80
2024/04/09 12:30:18;;;;;;;3.13;1.70;;;;;;;14.33;99.79;100806.72;6642627;26;20079;-79
2024/04/09 12:33:20;;;;;;;3.88;1.50;;;;;;;14.09;99.65;100810.06;6642541;26;20007;-78
2024/04/09 12:36:25;;;;;;;1.20;1.10;;;;;;;13.81;100.00;100812.88;6642505;26;20251;-76
2024/04/09 12:39:30;;;;;;;3.00;1.70;;;;;;;13.75;100.00;100815.88;6642714;26;20013;-78
2024/04/09 12:42:33;;;;;;;3.53;2.00;;;;;;;13.76;100.00;100812.28;6642397;26;20008;-78
2024/04/09 12:45:36;;;;;;;4.05;2.33;;;;;;;13.51;100.00;100816.53;6664058;26;20264;-79
2024/04/09 12:48:36;;;;;;;4.72;2.15;;;;;;;13.45;100.00;100809.03;6685700;26;19993;-78
2024/04/09 12:51:42;;;;;;;5.05;2.08;;;;;;;13.35;100.00;100816.69;6685268;26;20074;-79
2024/04/09 12:54:43;;;;;;;7.05;2.55;;;;;;;13.39;100.00;100812.88;6648621;26;20005;-80
2024/04/09 12:57:46;;;;;;;5.40;3.08;;;;;;;13.33;100.00;100815.06;6658053;26;20347;-80
2024/04/09 13:00:49;;;;;;;3.35;2.50;;;;;;;13.49;100.00;100810.53;6670395;26;19996;-79
2024/04/09 13:03:50;;;;;;;3.22;1.98;;;;;;;13.53;100.00;100809.34;6645238;26;20009;-79
2024/04/09 13:06:56;;;;;;;7.20;2.92;;;;;;;13.53;100.00;100817.28;6653487;26;20004;-81
2024/04/09 13:09:56;;;;;;;3.38;2.15;;;;;;;13.47;100.00;100812.41;6657947;26;20001;-79
2024/04/09 13:12:59;;;;;;;4.63;2.35;;;;;;;13.50;100.00;100827.22;6641403;26;20062;-78
2024/04/09 13:16:02;;;;;;;2.33;1.95;;;;;;;13.54;100.00;100828.72;6641704;26;20359;-78
2024/04/09 13:19:06;;;;;;;2.78;1.70;;;;;;;13.46;100.00;100821.28;6641605;26;20062;-80
2024/04/09 13:22:09;;;;;;;6.75;1.58;;;;;;;13.50;100.00;100830.69;6641802;26;20005;-78
2024/04/09 13:25:12;;;;;;;1.80;1.20;;;;;;;13.49;100.00;100813.16;6643212;26;19997;-79
2024/04/09 13:28:12;;;;;;;4.45;1.48;;;;;;;13.47;100.00;100820.31;6645611;26;20089;-78
2024/04/09 13:31:15;;;;;;;2.80;1.52;;;;;;;13.42;100.00;100814.50;6646088;26;20001;-77
2024/04/09 13:34:16;;;;;;;3.72;2.13;;;;;;;13.51;100.00;100824.47;6645772;26;20001;-76
2024/04/09 13:37:21;;;;;;;2.83;1.42;;;;;;;13.38;100.00;100818.25;6645310;26;20328;-77
2024/04/09 13:40:25;;;;;;;2.83;1.30;;;;;;;13.36;100.00;100814.88;6645746;26;19992;-77
2024/04/09 13:43:26;;;;;;;2.20;1.40;;;;;;;13.51;100.00;100818.34;6658364;26;20004;-79
2024/04/09 13:46:29;;;;;;;3.92;1.75;;;;;;;13.59;100.00;100816.06;6670080;26;19997;-78
2024/04/09 13:49:29;;;;;;;4.43;2.00;;;;;;;13.63;100.00;100807.00;6658760;26;20474;-74
2024/04/09 13:52:35;;;;;;;4.82;1.70;;;;;;;13.46;100.00;100802.78;6661614;26;20016;-78
2024/04/09 13:55:36;;;;;;;4.55;1.40;;;;;;;13.47;100.00;100791.28;6657100;26;20285;-78
2024/04/09 13:58:39;;;;;;;1.63;1.40;;;;;;;13.54;100.00;100776.75;6644114;26;19993;-78
2024/04/09 14:01:42;;;;;;;2.67;1.75;;;;;;;13.47;100.00;100786.00;6644132;26;20009;-79